createdAt,value
2019-03-31T00:02:19.550Z,13.50
2019-03-31T00:04:48.515Z,12.47
2019-03-31T00:07:17.542Z,13.40
2019-03-31T00:09:46.604Z,12.83
2019-03-31T00:12:15.725Z,12.50
2019-03-31T00:14:44.785Z,13.47
2019-03-31T00:17:13.887Z,13.20
2019-03-31T00:19:42.947Z,13.17
2019-03-31T00:22:11.896Z,13.23
2019-03-31T00:24:40.892Z,13.27
2019-03-31T00:27:09.788Z,13.30
2019-03-31T00:29:38.742Z,12.60
2019-03-31T00:32:07.888Z,12.63
2019-03-31T00:34:36.963Z,11.87
2019-03-31T00:37:07.669Z,11.77
2019-03-31T00:39:37.006Z,12.73
2019-03-31T00:42:06.099Z,12.43
2019-03-31T00:44:34.991Z,12.30
2019-03-31T00:47:05.332Z,12.83
2019-03-31T00:49:34.510Z,15.27
2019-03-31T00:52:03.607Z,17.80
2019-03-31T00:54:32.879Z,17.67
2019-03-31T00:57:03.725Z,15.90
2019-03-31T00:59:32.844Z,15.23
2019-03-31T01:02:07.054Z,13.70
2019-03-31T01:04:36.430Z,13.33
2019-03-31T01:07:06.403Z,12.73
2019-03-31T01:09:35.531Z,12.47
2019-03-31T01:12:05.422Z,12.67
2019-03-31T01:14:34.707Z,13.17
2019-03-31T01:17:03.907Z,13.70
2019-03-31T01:19:33.412Z,12.57
2019-03-31T01:22:02.435Z,12.80
2019-03-31T01:24:31.463Z,13.27
2019-03-31T01:27:00.789Z,12.63
2019-03-31T01:29:29.917Z,12.47
2019-03-31T01:31:59.023Z,12.70
2019-03-31T01:34:28.014Z,12.63
2019-03-31T01:36:57.015Z,12.73
2019-03-31T01:39:27.507Z,12.67
2019-03-31T01:41:56.495Z,13.33
2019-03-31T01:44:25.407Z,13.33
2019-03-31T01:46:54.462Z,12.97
2019-03-31T01:49:23.709Z,12.63
2019-03-31T01:51:52.843Z,13.10
2019-03-31T01:54:21.943Z,13.20
2019-03-31T01:56:50.937Z,13.10
2019-03-31T01:59:19.925Z,13.63
2019-03-31T02:01:48.990Z,13.30
2019-03-31T02:04:17.951Z,13.67
2019-03-31T02:06:47.313Z,13.97
2019-03-31T02:09:16.303Z,13.37
2019-03-31T02:11:45.523Z,13.97
2019-03-31T02:14:14.405Z,13.10
2019-03-31T02:16:43.343Z,13.00
2019-03-31T02:19:12.323Z,13.03
2019-03-31T02:21:41.577Z,13.03
2019-03-31T02:24:10.623Z,12.83
2019-03-31T02:26:39.881Z,13.43
2019-03-31T02:29:09.025Z,12.93
2019-03-31T02:31:38.407Z,13.10
2019-03-31T02:34:07.465Z,13.17
2019-03-31T02:36:36.407Z,13.47
2019-03-31T02:39:05.958Z,13.40
2019-03-31T02:41:35.293Z,14.87
2019-03-31T02:44:04.551Z,14.07
2019-03-31T02:46:33.628Z,14.03
2019-03-31T02:49:02.816Z,14.10
2019-03-31T02:51:32.530Z,14.93
2019-03-31T02:54:03.729Z,14.93
2019-03-31T02:56:35.605Z,14.43
2019-03-31T02:59:06.773Z,14.57
2019-03-31T03:04:09.769Z,13.83
2019-03-31T03:06:39.644Z,14.63
2019-03-31T03:09:08.937Z,13.90
2019-03-31T03:11:38.663Z,13.97
2019-03-31T03:14:08.448Z,13.23
2019-03-31T03:16:37.611Z,12.40
2019-03-31T03:19:06.590Z,13.03
2019-03-31T03:21:35.503Z,12.23
2019-03-31T03:24:04.766Z,13.43
2019-03-31T03:26:33.823Z,12.73
2019-03-31T03:29:03.282Z,12.27
2019-03-31T03:31:32.434Z,11.97
2019-03-31T03:34:01.484Z,12.20
2019-03-31T03:36:30.447Z,14.47
2019-03-31T03:38:59.472Z,16.37
2019-03-31T03:41:28.390Z,15.83
2019-03-31T03:44:02.127Z,15.10
2019-03-31T03:46:28.137Z,14.70
2019-03-31T03:48:57.098Z,14.33
2019-03-31T03:51:26.184Z,14.90
2019-03-31T03:53:55.222Z,14.60
2019-03-31T03:56:28.718Z,14.70
2019-03-31T03:58:54.803Z,15.10
2019-03-31T04:01:26.241Z,14.40
2019-03-31T04:03:55.219Z,15.17
2019-03-31T04:06:24.313Z,15.27
2019-03-31T04:08:53.417Z,13.97
2019-03-31T04:11:26.026Z,13.93
2019-03-31T04:13:54.979Z,13.90
2019-03-31T04:16:24.212Z,14.40
2019-03-31T04:18:53.483Z,13.20
2019-03-31T04:21:22.625Z,14.00
2019-03-31T04:23:51.657Z,13.73
2019-03-31T04:26:20.648Z,12.87
2019-03-31T04:28:49.543Z,11.80
2019-03-31T04:31:18.702Z,13.27
2019-03-31T04:33:52.155Z,12.30
2019-03-31T04:36:18.533Z,12.27
2019-03-31T04:38:47.802Z,12.90
2019-03-31T04:41:17.291Z,12.50
2019-03-31T04:43:46.613Z,12.63
2019-03-31T04:46:15.729Z,12.53
2019-03-31T04:48:44.672Z,12.50
2019-03-31T04:51:14.308Z,12.87
2019-03-31T04:53:43.438Z,12.37
2019-03-31T04:56:12.486Z,12.37
2019-03-31T04:58:41.516Z,13.53
2019-03-31T05:01:10.550Z,12.63
2019-03-31T05:03:39.596Z,12.47
2019-03-31T05:06:08.646Z,12.90
2019-03-31T05:08:37.748Z,12.57
2019-03-31T05:11:06.724Z,12.50
2019-03-31T05:13:35.772Z,13.67
2019-03-31T05:16:04.792Z,13.63
2019-03-31T05:18:33.742Z,13.37
2019-03-31T05:21:02.929Z,13.63
2019-03-31T05:23:32.179Z,13.47
2019-03-31T05:26:01.299Z,13.50
2019-03-31T05:28:30.468Z,13.57
2019-03-31T05:30:59.746Z,13.30
2019-03-31T05:33:28.748Z,13.70
2019-03-31T05:35:57.759Z,13.20
2019-03-31T05:38:26.898Z,12.53
2019-03-31T05:40:56.183Z,12.60
2019-03-31T05:43:25.047Z,13.33
2019-03-31T05:45:54.164Z,13.10
2019-03-31T05:48:23.374Z,12.17
2019-03-31T05:50:52.476Z,11.97
2019-03-31T05:53:21.526Z,12.60
2019-03-31T05:55:50.596Z,12.80
2019-03-31T05:58:19.516Z,12.90
2019-03-31T06:00:51.742Z,11.83
2019-03-31T06:03:20.726Z,12.17
2019-03-31T06:05:49.779Z,12.47
2019-03-31T06:08:18.695Z,11.93
2019-03-31T06:10:47.807Z,11.93
2019-03-31T06:13:16.855Z,12.97
2019-03-31T06:15:45.992Z,12.33
2019-03-31T06:18:15.116Z,11.67
2019-03-31T06:20:44.247Z,11.70
2019-03-31T06:23:13.367Z,11.93
2019-03-31T06:25:42.664Z,11.93
2019-03-31T06:28:11.543Z,11.40
2019-03-31T06:30:40.595Z,12.13
2019-03-31T06:33:09.504Z,11.93
2019-03-31T06:35:38.525Z,11.60
2019-03-31T06:38:07.791Z,11.37
2019-03-31T06:40:36.804Z,11.33
2019-03-31T06:43:05.704Z,10.17
2019-03-31T06:45:34.911Z,10.63
2019-03-31T06:48:04.012Z,11.40
2019-03-31T06:50:32.978Z,10.43
2019-03-31T06:53:02.261Z,10.60
2019-03-31T06:55:31.276Z,10.37
2019-03-31T06:58:00.157Z,9.53
2019-03-31T07:00:29.066Z,10.10
2019-03-31T07:02:58.109Z,9.77
2019-03-31T07:05:27.031Z,10.10
2019-03-31T07:07:55.906Z,11.67
2019-03-31T07:10:24.863Z,11.87
2019-03-31T07:12:54.041Z,10.63
2019-03-31T07:15:22.909Z,11.37
2019-03-31T07:17:51.987Z,11.10
2019-03-31T07:20:20.885Z,10.77
2019-03-31T07:22:49.791Z,11.13
2019-03-31T07:25:18.814Z,10.73
2019-03-31T07:27:47.853Z,10.60
2019-03-31T07:30:17.839Z,10.40
2019-03-31T07:32:47.065Z,11.73
2019-03-31T07:35:18.757Z,12.07
2019-03-31T07:37:47.911Z,10.33
2019-03-31T07:40:17.901Z,10.20
2019-03-31T07:42:47.040Z,10.60
2019-03-31T07:45:16.295Z,11.30
2019-03-31T07:47:45.285Z,11.43
2019-03-31T07:50:14.713Z,10.50
2019-03-31T07:52:43.638Z,10.80
2019-03-31T07:55:13.057Z,10.77
2019-03-31T07:57:42.091Z,10.40
2019-03-31T08:00:12.635Z,10.37
2019-03-31T08:02:41.759Z,10.13
2019-03-31T08:05:10.987Z,10.83
2019-03-31T08:07:40.265Z,9.93
2019-03-31T08:10:09.888Z,10.17
2019-03-31T08:12:39.090Z,10.10
2019-03-31T08:15:08.641Z,10.00
2019-03-31T08:17:37.554Z,9.73
2019-03-31T08:20:07.451Z,10.50
2019-03-31T08:22:36.407Z,9.30
2019-03-31T08:25:05.606Z,10.53
2019-03-31T08:27:34.570Z,9.27
2019-03-31T08:30:04.031Z,9.17
2019-03-31T08:32:32.981Z,9.30
2019-03-31T08:35:02.103Z,9.50
2019-03-31T08:37:31.186Z,9.93
2019-03-31T08:40:00.093Z,9.53
2019-03-31T08:42:29.172Z,9.40
2019-03-31T08:44:58.272Z,9.83
2019-03-31T08:47:27.276Z,9.17
2019-03-31T08:49:56.201Z,9.10
2019-03-31T08:52:25.137Z,10.03
2019-03-31T08:54:54.095Z,9.73
2019-03-31T08:57:23.086Z,10.00
2019-03-31T08:59:52.117Z,9.50
2019-03-31T09:02:29.940Z,9.10
2019-03-31T09:04:59.012Z,9.27
2019-03-31T09:07:28.112Z,9.60
2019-03-31T09:09:57.167Z,10.57
2019-03-31T09:12:26.266Z,9.87
2019-03-31T09:14:55.424Z,9.47
2019-03-31T09:17:24.618Z,9.70
2019-03-31T09:19:53.534Z,9.83
2019-03-31T09:22:22.427Z,9.77
2019-03-31T09:24:51.538Z,9.47
2019-03-31T09:27:20.615Z,10.33
2019-03-31T09:29:49.708Z,8.97
2019-03-31T09:32:18.722Z,11.03
2019-03-31T09:34:47.752Z,10.67
2019-03-31T09:37:16.788Z,10.87
2019-03-31T09:39:45.844Z,10.20
2019-03-31T09:42:14.912Z,10.80
2019-03-31T09:44:43.896Z,10.33
2019-03-31T09:47:12.901Z,10.27
2019-03-31T09:49:41.910Z,10.80
2019-03-31T09:52:10.835Z,10.27
2019-03-31T09:54:39.753Z,11.17
2019-03-31T09:57:08.740Z,11.13
2019-03-31T09:59:37.630Z,11.00
2019-03-31T10:02:06.856Z,10.83
2019-03-31T10:04:35.872Z,11.63
2019-03-31T10:07:04.740Z,11.07
2019-03-31T10:09:33.889Z,10.13
2019-03-31T10:12:02.949Z,10.50
2019-03-31T10:14:32.027Z,10.63
2019-03-31T10:17:01.191Z,10.70
2019-03-31T10:19:30.386Z,10.57
2019-03-31T10:21:59.328Z,11.80
2019-03-31T10:24:28.372Z,11.43
2019-03-31T10:26:57.444Z,11.97
2019-03-31T10:29:26.396Z,11.73
2019-03-31T10:31:55.488Z,12.57
2019-03-31T10:34:24.607Z,12.27
2019-03-31T10:36:53.820Z,10.87
2019-03-31T10:39:22.781Z,12.00
2019-03-31T10:41:51.827Z,11.67
2019-03-31T10:44:20.891Z,11.60
2019-03-31T10:46:50.254Z,12.10
2019-03-31T10:49:19.325Z,12.50
2019-03-31T10:51:48.385Z,12.07
2019-03-31T10:54:17.587Z,11.33
2019-03-31T10:56:46.552Z,12.23
2019-03-31T10:59:15.483Z,12.63
2019-03-31T11:01:44.591Z,12.93
2019-03-31T11:04:13.619Z,13.30
2019-03-31T11:06:42.619Z,13.03
2019-03-31T11:09:11.631Z,13.20
2019-03-31T11:11:40.710Z,12.83
2019-03-31T11:14:09.793Z,11.40
2019-03-31T11:16:38.960Z,12.53
2019-03-31T11:19:08.111Z,12.63
2019-03-31T11:21:42.411Z,12.87
2019-03-31T11:24:11.410Z,12.93
2019-03-31T11:26:40.447Z,13.90
2019-03-31T11:29:09.449Z,13.63
2019-03-31T11:31:38.403Z,13.27
2019-03-31T11:34:07.313Z,13.17
2019-03-31T11:36:36.313Z,12.70
2019-03-31T11:39:06.617Z,12.83
2019-03-31T11:41:35.597Z,12.90
2019-03-31T11:44:05.207Z,12.73
2019-03-31T11:46:34.140Z,13.60
2019-03-31T11:49:03.119Z,13.80
2019-03-31T11:51:32.033Z,13.60
2019-03-31T11:54:01.125Z,14.00
2019-03-31T11:56:30.167Z,12.70
2019-03-31T11:58:59.191Z,13.50
2019-03-31T12:01:28.236Z,13.33
2019-03-31T12:03:57.104Z,11.87
2019-03-31T12:06:26.277Z,12.90
2019-03-31T12:08:55.559Z,12.93
2019-03-31T12:11:24.740Z,12.87
2019-03-31T12:13:53.715Z,13.40
2019-03-31T12:16:22.914Z,12.60
2019-03-31T12:18:51.811Z,12.70
2019-03-31T12:21:20.968Z,12.20
2019-03-31T12:23:49.976Z,12.63
2019-03-31T12:26:18.941Z,13.50
2019-03-31T12:28:47.938Z,12.37
2019-03-31T12:31:17.458Z,12.27
2019-03-31T12:33:46.486Z,12.33
2019-03-31T12:36:15.480Z,12.67
2019-03-31T12:38:44.489Z,12.90
2019-03-31T12:41:13.350Z,12.47
2019-03-31T12:43:42.453Z,12.90
2019-03-31T12:46:11.562Z,12.87
2019-03-31T12:48:40.769Z,12.90
2019-03-31T12:51:09.737Z,13.07
2019-03-31T12:53:38.977Z,13.57
2019-03-31T12:56:07.926Z,13.13
2019-03-31T12:58:36.862Z,13.03
2019-03-31T13:01:05.896Z,13.73
2019-03-31T13:03:35.100Z,11.83
2019-03-31T13:06:04.240Z,12.97
2019-03-31T13:08:33.198Z,12.63
2019-03-31T13:11:02.253Z,12.43
2019-03-31T13:13:31.485Z,13.53
2019-03-31T13:16:00.428Z,12.40
2019-03-31T13:18:29.368Z,11.77
2019-03-31T13:20:58.380Z,13.13
2019-03-31T13:23:27.356Z,12.17
2019-03-31T13:25:56.291Z,11.60
2019-03-31T13:28:25.398Z,11.70
2019-03-31T13:30:54.460Z,10.80
2019-03-31T13:33:23.380Z,11.37
2019-03-31T13:35:53.392Z,11.93
2019-03-31T13:38:22.552Z,11.27
2019-03-31T13:40:51.472Z,9.13
2019-03-31T13:43:20.436Z,10.27
2019-03-31T13:45:49.376Z,9.57
2019-03-31T13:48:18.468Z,10.13
2019-03-31T13:50:47.418Z,10.77
2019-03-31T13:53:16.594Z,10.77
2019-03-31T13:55:45.755Z,10.10
2019-03-31T13:58:15.546Z,10.50
2019-03-31T14:00:45.147Z,10.00
2019-03-31T14:03:14.064Z,9.73
2019-03-31T14:05:42.963Z,9.50
2019-03-31T14:08:25.020Z,10.20
2019-03-31T14:10:42.778Z,9.97
2019-03-31T14:13:11.870Z,11.17
2019-03-31T14:15:40.931Z,10.60
2019-03-31T14:18:09.853Z,9.43
2019-03-31T14:20:38.762Z,9.90
2019-03-31T14:23:07.854Z,8.93
2019-03-31T14:25:36.936Z,9.20
2019-03-31T14:28:05.890Z,8.87
2019-03-31T14:30:34.822Z,8.67
2019-03-31T14:33:03.833Z,9.43
2019-03-31T14:35:33.068Z,9.40
2019-03-31T14:38:01.991Z,10.33
2019-03-31T14:40:31.142Z,9.60
2019-03-31T14:43:00.358Z,10.37
2019-03-31T14:45:30.120Z,10.03
2019-03-31T14:47:59.143Z,11.20
2019-03-31T14:50:31.556Z,10.53
2019-03-31T14:53:00.530Z,10.37
2019-03-31T14:55:29.619Z,11.63
2019-03-31T14:57:58.726Z,10.90
2019-03-31T15:00:27.740Z,11.03
2019-03-31T15:02:56.640Z,10.80
2019-03-31T15:05:26.082Z,10.93
2019-03-31T15:07:58.329Z,11.00
2019-03-31T15:10:25.822Z,12.18
2019-03-31T15:12:54.763Z,12.13
2019-03-31T15:15:23.940Z,11.67
2019-03-31T15:17:52.960Z,10.37
2019-03-31T15:20:21.999Z,9.97
2019-03-31T15:22:51.638Z,9.90
2019-03-31T15:25:20.695Z,11.10
2019-03-31T15:27:49.574Z,12.63
2019-03-31T15:30:18.622Z,12.63
2019-03-31T15:32:47.490Z,11.97
2019-03-31T15:35:16.392Z,12.90
2019-03-31T15:37:45.421Z,12.50
2019-03-31T15:40:14.490Z,12.13
2019-03-31T15:42:43.526Z,12.13
2019-03-31T15:45:12.476Z,11.50
2019-03-31T15:47:41.426Z,12.20
2019-03-31T15:50:10.827Z,13.23
2019-03-31T15:52:40.113Z,12.60
2019-03-31T15:55:09.284Z,12.67
2019-03-31T15:57:38.578Z,12.57
2019-03-31T16:00:08.489Z,13.73
2019-03-31T16:02:37.439Z,13.43
2019-03-31T16:05:06.781Z,12.93
2019-03-31T16:07:35.829Z,13.40
2019-03-31T16:10:05.283Z,12.93
2019-03-31T16:12:34.037Z,12.50
2019-03-31T16:15:02.731Z,12.50
2019-03-31T16:17:31.484Z,12.07
2019-03-31T16:20:00.368Z,12.77
2019-03-31T16:22:29.043Z,13.10
2019-03-31T16:24:58.771Z,13.07
2019-03-31T16:27:27.511Z,12.80
2019-03-31T16:29:56.246Z,12.60
2019-03-31T16:32:24.971Z,12.67
2019-03-31T16:34:53.961Z,12.50
2019-03-31T16:37:22.563Z,13.40
2019-03-31T16:39:51.374Z,12.13
2019-03-31T16:42:20.039Z,13.47
2019-03-31T16:44:58.045Z,13.03
2019-03-31T16:47:19.192Z,13.23
2019-03-31T16:49:47.848Z,13.60
2019-03-31T16:52:16.867Z,13.40
2019-03-31T16:54:45.710Z,13.10
2019-03-31T16:57:14.415Z,13.10
2019-03-31T16:59:43.523Z,11.67
2019-03-31T17:02:12.246Z,11.60
2019-03-31T17:04:40.906Z,11.90
2019-03-31T17:07:09.543Z,12.03
2019-03-31T17:09:50.862Z,11.33
2019-03-31T17:12:08.825Z,11.17
2019-03-31T17:14:37.432Z,12.10
2019-03-31T17:17:06.190Z,11.60
2019-03-31T17:19:34.868Z,10.37
2019-03-31T17:22:03.783Z,10.70
2019-03-31T17:24:32.617Z,10.77
2019-03-31T17:27:01.230Z,11.00
2019-03-31T17:29:29.921Z,10.80
2019-03-31T17:31:58.633Z,10.43
2019-03-31T17:34:27.225Z,10.30
2019-03-31T17:36:55.891Z,10.07
2019-03-31T17:39:24.920Z,10.30
2019-03-31T17:41:53.704Z,10.20
2019-03-31T17:44:22.551Z,10.40
2019-03-31T17:46:51.381Z,11.30
2019-03-31T17:49:20.077Z,10.20
2019-03-31T17:51:48.777Z,10.50
2019-03-31T17:54:17.478Z,11.10
2019-03-31T17:56:46.298Z,10.50
2019-03-31T17:59:15.279Z,9.80
2019-03-31T18:01:43.979Z,10.27
2019-03-31T18:04:12.892Z,10.50
2019-03-31T18:06:41.829Z,9.77
2019-03-31T18:09:10.700Z,9.40
2019-03-31T18:11:39.491Z,10.73
2019-03-31T18:14:08.305Z,9.80
2019-03-31T18:16:37.000Z,9.83
2019-03-31T18:19:05.653Z,10.87
2019-03-31T18:21:34.309Z,10.50
2019-03-31T18:24:03.038Z,9.90
2019-03-31T18:26:31.975Z,10.63
2019-03-31T18:29:00.676Z,10.00
2019-03-31T18:31:29.408Z,9.80
2019-03-31T18:33:58.205Z,9.93
2019-03-31T18:36:36.416Z,10.13
2019-03-31T18:38:57.446Z,10.23
2019-03-31T18:41:26.200Z,10.17
2019-03-31T18:43:54.892Z,9.87
2019-03-31T18:46:23.508Z,9.43
2019-03-31T18:48:52.213Z,9.80
2019-03-31T18:51:20.886Z,9.93
2019-03-31T18:54:14.554Z,10.30
2019-03-31T18:56:54.868Z,9.97
2019-03-31T18:59:41.206Z,10.20
2019-03-31T19:02:40.824Z,9.77
2019-03-31T19:05:29.378Z,10.87
2019-03-31T19:08:05.270Z,9.50
2019-03-31T19:11:01.963Z,9.77
2019-03-31T19:13:55.358Z,10.63
2019-03-31T19:16:35.832Z,9.63
2019-03-31T19:19:22.215Z,11.07
2019-03-31T19:22:03.356Z,11.23
2019-03-31T19:24:54.840Z,10.97
2019-03-31T19:27:35.536Z,10.67
2019-03-31T19:30:23.296Z,10.83
2019-03-31T19:33:20.002Z,11.17
2019-03-31T19:36:16.896Z,10.93
2019-03-31T19:39:04.579Z,10.67
2019-03-31T19:41:47.720Z,10.40
2019-03-31T19:44:33.575Z,9.67
2019-03-31T19:47:20.162Z,10.03
2019-03-31T19:50:03.501Z,9.73
2019-03-31T19:52:42.696Z,10.37
2019-03-31T19:55:27.593Z,9.97
2019-03-31T19:58:15.395Z,9.10
2019-03-31T20:01:05.900Z,9.87
2019-03-31T20:03:53.581Z,9.73
2019-03-31T20:06:40.204Z,9.73
2019-03-31T20:09:40.074Z,10.00
2019-03-31T20:12:27.875Z,10.03
2019-03-31T20:15:11.971Z,9.50
2019-03-31T20:18:00.665Z,9.13
2019-03-31T20:20:35.767Z,10.03
2019-03-31T20:23:32.884Z,9.70
2019-03-31T20:26:32.583Z,9.77
2019-03-31T20:29:12.599Z,11.30
2019-03-31T20:31:59.028Z,12.33
2019-03-31T20:34:55.798Z,13.63
2019-03-31T20:37:48.365Z,12.03
2019-03-31T20:40:39.717Z,12.73
2019-03-31T20:43:18.835Z,12.30
2019-03-31T20:45:47.771Z,11.93
2019-03-31T20:48:16.509Z,12.17
2019-03-31T20:50:45.359Z,11.90
2019-03-31T20:53:14.156Z,12.60
2019-03-31T20:55:42.895Z,11.70
2019-03-31T20:58:11.607Z,11.77
2019-03-31T21:00:40.465Z,11.23
2019-03-31T21:03:09.137Z,10.00
2019-03-31T21:05:37.795Z,11.17
2019-03-31T21:08:06.467Z,9.90
2019-03-31T21:10:35.425Z,9.73
2019-03-31T21:13:04.290Z,10.57
2019-03-31T21:15:32.974Z,10.10
2019-03-31T21:18:01.863Z,10.10
2019-03-31T21:20:30.523Z,10.43
2019-03-31T21:22:59.435Z,12.63
2019-03-31T21:25:28.066Z,12.63
2019-03-31T21:27:56.836Z,12.57
2019-03-31T21:30:25.639Z,12.80
2019-03-31T21:32:54.383Z,11.93
2019-03-31T21:35:24.927Z,12.07
2019-03-31T21:37:53.568Z,11.87
2019-03-31T21:40:22.225Z,11.07
2019-03-31T21:42:51.141Z,11.10
2019-03-31T21:45:19.799Z,10.63
2019-03-31T21:47:48.671Z,11.23
2019-03-31T21:50:17.423Z,10.40
2019-03-31T21:52:46.139Z,10.43
2019-03-31T21:55:14.749Z,10.17
2019-03-31T21:57:43.679Z,10.90
2019-03-31T22:00:12.653Z,11.17
2019-03-31T22:02:41.835Z,10.57
2019-03-31T22:05:10.753Z,11.03
2019-03-31T22:07:39.488Z,10.73
2019-03-31T22:10:08.552Z,11.10
2019-03-31T22:12:37.182Z,12.57
2019-03-31T22:15:06.034Z,10.67
2019-03-31T22:17:34.649Z,10.60
2019-03-31T22:20:03.432Z,11.20
2019-03-31T22:22:32.147Z,10.90
2019-03-31T22:25:00.907Z,11.43
2019-03-31T22:27:29.591Z,11.63
2019-03-31T22:29:58.444Z,11.47
2019-03-31T22:32:27.088Z,10.90
2019-03-31T22:34:55.842Z,11.80
2019-03-31T22:37:24.562Z,11.23
2019-03-31T22:39:53.548Z,11.37
2019-03-31T22:42:22.220Z,11.37
2019-03-31T22:44:50.975Z,11.40
2019-03-31T22:47:19.703Z,11.47
2019-03-31T22:49:48.400Z,10.83
2019-03-31T22:52:16.995Z,11.00
2019-03-31T22:54:46.150Z,10.83
2019-03-31T22:57:15.122Z,11.00
2019-03-31T22:59:43.868Z,11.30
2019-03-31T23:02:12.590Z,11.00
2019-03-31T23:04:41.242Z,12.37
2019-03-31T23:07:10.066Z,11.90
2019-03-31T23:09:38.678Z,11.53
2019-03-31T23:12:07.372Z,12.37
2019-03-31T23:14:36.071Z,11.83
2019-03-31T23:17:04.954Z,11.83
2019-03-31T23:19:33.814Z,12.73
2019-03-31T23:22:02.787Z,12.27
2019-03-31T23:24:31.896Z,11.87
2019-03-31T23:27:00.738Z,12.53
2019-03-31T23:29:29.346Z,12.73
2019-03-31T23:31:57.934Z,12.53
2019-03-31T23:34:26.595Z,11.63
2019-03-31T23:36:55.419Z,12.60
2019-03-31T23:39:24.038Z,11.77
2019-03-31T23:41:52.830Z,11.70
2019-03-31T23:44:21.567Z,11.53
2019-03-31T23:46:50.359Z,11.57
2019-03-31T23:49:19.043Z,11.30
2019-03-31T23:51:47.685Z,11.23
2019-03-31T23:54:16.547Z,11.73
2019-03-31T23:56:45.340Z,10.40
2019-03-31T23:59:14.090Z,10.50
